Terminal Aerodrome Forecast
Issued by NWS

Home | Current Version | Previous Version | Graphics & Text | Print | Product List | Glossary On
Versions: 1 2 3 4 5 6 7 8 9 10 11 12 13 14 15 16 17 18 19 20
674
FTUS43 KICT 271503 AAA
TAFRSL
TAF AMD
KRSL 271503Z 2715/2812 13008KT P6SM OVC015
     FM271800 15012KT P6SM VCTS BKN025CB
     FM272000 15012KT P6SM VCTS BKN035CB
     FM280900 23009KT P6SM BKN020=

USA.gov is the U.S. government's official web portal to all federal, state and local government web resources and services.